Dream Diva — 3EKW6 — position and weather

sailwx.info

Track history (hours):
 
Tides and Currents Weather Stations Pressure Air Temp Water Temp Dewpoint Dewpoint Depression Visibility Wind Speed Wind Dir Waves Ship Positions

Dream Diva

Last reported at 2014-Dec-19 09:09 UTC. Time now 2014-Dec-20 18:38 UTC.
Position N 35°04' E 139°43'.

Length 186 m; draft 8.3 m.

Type: Cargo ship. MMSI: 372856000.

Date/timePositionNaut miles runAvg speedWind from/ knotsBaromVisibWave heightAir tempDewpointWater temp
2014-Dec-19 09:09N 35°04' E 139°43'813.3
2014-Dec-19 08:33N 35°11' E 139°46'1111.1
2014-Dec-19 07:33N 35°22' E 139°42'6 5.4
2014-Dec-19 06:31N 35°27' E 139°41'0 0.0
2014-Dec-19 05:31N 35°27' E 139°41'0 0.0
2014-Dec-19 04:31N 35°27' E 139°41'0 0.0
2014-Dec-19 03:31N 35°27' E 139°41'0 0.0
2014-Dec-19 02:31N 35°27' E 139°41'0 0.0
2014-Dec-19 01:31N 35°27' E 139°41'0 0.0
2014-Dec-19 00:31N 35°27' E 139°41'0 0.0
2014-Dec-18 23:31N 35°27' E 139°41'0 0.0
2014-Dec-18 22:31N 35°27' E 139°41'3 3.3
2014-Dec-18 21:33N 35°24' E 139°43'1010.5
2014-Dec-18 20:33N 35°14' E 139°47'1010.2
2014-Dec-18 19:33N 35°04' E 139°45'  
2014-Dec-16 11:16N 33°58' E 134°60'1217.0
2014-Dec-16 10:33N 34°10' E 134°58'1414.2
2014-Dec-16 09:33N 34°23' E 135°03'1616.3
2014-Dec-16 08:33N 34°32' E 135°20'3 0.4
2014-Dec-15 23:17N 34°32' E 135°24'0 0.5
2014-Dec-15 22:33N 34°32' E 135°24'8 8.5
2014-Dec-15 21:34N 34°30' E 135°14'1717.1
2014-Dec-15 20:34N 34°18' E 134°59'1212.2
2014-Dec-15 19:33N 34°06' E 134°58'20812.2
2014-Dec-15 02:32N 34°03' E 130°47'  
2014-Dec-11 22:04N 38°54' E 118°07'510.0
2014-Dec-11 21:33N 38°56' E 118°01'1111.2
2014-Dec-11 20:33N 38°59' E 117°47'0 0.2
2014-Dec-11 19:33N 38°59' E 117°47'0 0.0
2014-Dec-11 18:33N 38°59' E 117°47'0 0.0
2014-Dec-11 17:33N 38°59' E 117°47'0 0.1
2014-Dec-11 16:33N 38°59' E 117°47'0 0.0
2014-Dec-11 15:21N 38°59' E 117°47'0 0.1
2014-Dec-11 14:33N 38°59' E 117°47'0 0.0
2014-Dec-11 13:33N 38°59' E 117°47'0 0.0
2014-Dec-11 12:33N 38°59' E 117°47'0 0.0
2014-Dec-11 11:21N 38°59' E 117°47'0 0.0
2014-Dec-11 10:21N 38°59' E 117°47'0 0.0
2014-Dec-11 09:33N 38°59' E 117°47'0 0.0
2014-Dec-11 08:33N 38°59' E 117°47'0 0.0
2014-Dec-11 07:33N 38°59' E 117°47'7 7.5
2014-Dec-11 06:33N 38°57' E 117°56'9 9.3
2014-Dec-11 05:33N 38°56' E 118°08'2 0.4
2014-Dec-11 01:31N 38°55' E 118°10'149 6.4
2014-Dec-10 02:21N 38°26' E 121°18'  
Track history (hours):
 
Tides and Currents Weather Stations Pressure Air Temp Water Temp Dewpoint Dewpoint Depression Visibility Wind Speed Wind Dir Waves Ship Positions

Dream Diva

Last reported at 2014-Dec-19 09:09 UTC. Time now 2014-Dec-20 18:38 UTC.
Position N 35°04' E 139°43'.

Length 186 m; draft 8.3 m.

Type: Cargo ship. MMSI: 372856000.

Date/timePositionNaut miles runAvg speedWind from/ knotsBaromVisibWave heightAir tempDewpointWater temp
2014-Dec-19 09:09N 35°04' E 139°43'813.3
2014-Dec-19 08:33N 35°11' E 139°46'1111.1
2014-Dec-19 07:33N 35°22' E 139°42'6 5.4
2014-Dec-19 06:31N 35°27' E 139°41'0 0.0
2014-Dec-19 05:31N 35°27' E 139°41'0 0.0
2014-Dec-19 04:31N 35°27' E 139°41'0 0.0
2014-Dec-19 03:31N 35°27' E 139°41'0 0.0
2014-Dec-19 02:31N 35°27' E 139°41'0 0.0
2014-Dec-19 01:31N 35°27' E 139°41'0 0.0
2014-Dec-19 00:31N 35°27' E 139°41'0 0.0
2014-Dec-18 23:31N 35°27' E 139°41'0 0.0
2014-Dec-18 22:31N 35°27' E 139°41'3 3.3
2014-Dec-18 21:33N 35°24' E 139°43'1010.5
2014-Dec-18 20:33N 35°14' E 139°47'1010.2
2014-Dec-18 19:33N 35°04' E 139°45'  
2014-Dec-16 11:16N 33°58' E 134°60'1217.0
2014-Dec-16 10:33N 34°10' E 134°58'1414.2
2014-Dec-16 09:33N 34°23' E 135°03'1616.3
2014-Dec-16 08:33N 34°32' E 135°20'3 0.4
2014-Dec-15 23:17N 34°32' E 135°24'0 0.5
2014-Dec-15 22:33N 34°32' E 135°24'8 8.5
2014-Dec-15 21:34N 34°30' E 135°14'1717.1
2014-Dec-15 20:34N 34°18' E 134°59'1212.2
2014-Dec-15 19:33N 34°06' E 134°58'20812.2
2014-Dec-15 02:32N 34°03' E 130°47'  
2014-Dec-11 22:04N 38°54' E 118°07'510.0
2014-Dec-11 21:33N 38°56' E 118°01'1111.2
2014-Dec-11 20:33N 38°59' E 117°47'0 0.2
2014-Dec-11 19:33N 38°59' E 117°47'0 0.0
2014-Dec-11 18:33N 38°59' E 117°47'0 0.0
2014-Dec-11 17:33N 38°59' E 117°47'0 0.1
2014-Dec-11 16:33N 38°59' E 117°47'0 0.0
2014-Dec-11 15:21N 38°59' E 117°47'0 0.1
2014-Dec-11 14:33N 38°59' E 117°47'0 0.0
2014-Dec-11 13:33N 38°59' E 117°47'0 0.0
2014-Dec-11 12:33N 38°59' E 117°47'0 0.0
2014-Dec-11 11:21N 38°59' E 117°47'0 0.0
2014-Dec-11 10:21N 38°59' E 117°47'0 0.0
2014-Dec-11 09:33N 38°59' E 117°47'0 0.0
2014-Dec-11 08:33N 38°59' E 117°47'0 0.0
2014-Dec-11 07:33N 38°59' E 117°47'7 7.5
2014-Dec-11 06:33N 38°57' E 117°56'9 9.3
2014-Dec-11 05:33N 38°56' E 118°08'2 0.4
2014-Dec-11 01:31N 38°55' E 118°10'149 6.4
2014-Dec-10 02:21N 38°26' E 121°18'  

Dump ship's entire track history